sensor_id;sensor_type;location;lat;lon;timestamp;temperature;humidity
983;DHT22;480;48.124;11.578;2023-08-17T00:01:03;22.60;99.90
983;DHT22;480;48.124;11.578;2023-08-17T00:03:31;22.70;99.90
983;DHT22;480;48.124;11.578;2023-08-17T00:05:58;22.70;99.90
983;DHT22;480;48.124;11.578;2023-08-17T00:08:25;22.80;99.90
983;DHT22;480;48.124;11.578;2023-08-17T00:10:52;22.80;99.90
983;DHT22;480;48.124;11.578;2023-08-17T00:13:19;22.70;99.90
983;DHT22;480;48.124;11.578;2023-08-17T00:15:47;22.70;99.90
983;DHT22;480;48.124;11.578;2023-08-17T00:18:14;22.70;99.90
983;DHT22;480;48.124;11.578;2023-08-17T00:20:41;22.80;99.90
983;DHT22;480;48.124;11.578;2023-08-17T00:23:08;22.80;99.90
983;DHT22;480;48.124;11.578;2023-08-17T00:25:35;22.80;99.90
983;DHT22;480;48.124;11.578;2023-08-17T00:28:02;22.80;99.90
983;DHT22;480;48.124;11.578;2023-08-17T00:30:29;22.80;99.90
983;DHT22;480;48.124;11.578;2023-08-17T00:32:58;22.80;99.90
983;DHT22;480;48.124;11.578;2023-08-17T00:35:24;22.70;99.90
983;DHT22;480;48.124;11.578;2023-08-17T00:37:51;22.80;99.90
983;DHT22;480;48.124;11.578;2023-08-17T00:40:19;22.80;99.90
983;DHT22;480;48.124;11.578;2023-08-17T00:42:45;22.90;99.90
983;DHT22;480;48.124;11.578;2023-08-17T00:45:12;22.90;99.90
983;DHT22;480;48.124;11.578;2023-08-17T00:47:39;22.90;99.90
983;DHT22;480;48.124;11.578;2023-08-17T00:50:08;22.60;99.90
983;DHT22;480;48.124;11.578;2023-08-17T00:52:36;22.60;99.90
983;DHT22;480;48.124;11.578;2023-08-17T00:55:05;22.70;99.90
983;DHT22;480;48.124;11.578;2023-08-17T00:57:32;22.70;99.90
983;DHT22;480;48.124;11.578;2023-08-17T01:00:00;22.70;99.90
983;DHT22;480;48.124;11.578;2023-08-17T01:02:27;22.70;99.90
983;DHT22;480;48.124;11.578;2023-08-17T01:04:54;22.70;99.90
983;DHT22;480;48.124;11.578;2023-08-17T01:07:23;22.80;99.90
983;DHT22;480;48.124;11.578;2023-08-17T01:09:50;22.80;99.90
983;DHT22;480;48.124;11.578;2023-08-17T01:12:22;22.70;99.90
983;DHT22;480;48.124;11.578;2023-08-17T01:15:00;22.70;99.90
983;DHT22;480;48.124;11.578;2023-08-17T01:17:33;22.80;99.90
983;DHT22;480;48.124;11.578;2023-08-17T01:20:00;22.60;99.90
983;DHT22;480;48.124;11.578;2023-08-17T01:22:32;21.90;99.90
983;DHT22;480;48.124;11.578;2023-08-17T01:25:03;21.80;99.90
983;DHT22;480;48.124;11.578;2023-08-17T01:27:43;22.00;99.90
983;DHT22;480;48.124;11.578;2023-08-17T01:30:12;21.90;99.90
983;DHT22;480;48.124;11.578;2023-08-17T01:32:46;21.90;99.90
983;DHT22;480;48.124;11.578;2023-08-17T01:35:21;21.80;99.90
983;DHT22;480;48.124;11.578;2023-08-17T01:37:50;22.00;99.90
983;DHT22;480;48.124;11.578;2023-08-17T01:40:20;21.60;99.90
983;DHT22;480;48.124;11.578;2023-08-17T01:42:49;21.40;99.90
983;DHT22;480;48.124;11.578;2023-08-17T01:45:17;21.40;99.90
983;DHT22;480;48.124;11.578;2023-08-17T01:47:44;21.10;99.90
983;DHT22;480;48.124;11.578;2023-08-17T01:50:11;20.80;99.90
983;DHT22;480;48.124;11.578;2023-08-17T01:52:38;20.60;99.90
983;DHT22;480;48.124;11.578;2023-08-17T01:55:06;20.30;99.90
983;DHT22;480;48.124;11.578;2023-08-17T01:57:35;20.10;99.90
983;DHT22;480;48.124;11.578;2023-08-17T02:00:04;20.20;99.90
983;DHT22;480;48.124;11.578;2023-08-17T02:02:31;20.10;99.90
983;DHT22;480;48.124;11.578;2023-08-17T02:04:58;19.90;99.90
983;DHT22;480;48.124;11.578;2023-08-17T02:07:25;19.80;99.90
983;DHT22;480;48.124;11.578;2023-08-17T02:09:52;19.80;99.90
983;DHT22;480;48.124;11.578;2023-08-17T02:12:19;19.80;99.90
983;DHT22;480;48.124;11.578;2023-08-17T02:14:47;19.70;99.90
983;DHT22;480;48.124;11.578;2023-08-17T02:17:14;19.70;99.90
983;DHT22;480;48.124;11.578;2023-08-17T02:19:44;19.90;99.90
983;DHT22;480;48.124;11.578;2023-08-17T02:22:13;20.10;99.90
983;DHT22;480;48.124;11.578;2023-08-17T02:24:40;20.20;99.90
983;DHT22;480;48.124;11.578;2023-08-17T02:27:08;20.20;99.90
983;DHT22;480;48.124;11.578;2023-08-17T02:29:36;20.40;99.90
983;DHT22;480;48.124;11.578;2023-08-17T02:32:03;20.10;99.90
983;DHT22;480;48.124;11.578;2023-08-17T02:34:31;19.90;99.90
983;DHT22;480;48.124;11.578;2023-08-17T02:36:58;20.10;99.90
983;DHT22;480;48.124;11.578;2023-08-17T02:39:25;20.30;99.90
983;DHT22;480;48.124;11.578;2023-08-17T02:41:52;20.40;99.90
983;DHT22;480;48.124;11.578;2023-08-17T02:44:20;20.60;99.90
983;DHT22;480;48.124;11.578;2023-08-17T02:46:47;20.60;99.90
983;DHT22;480;48.124;11.578;2023-08-17T02:49:15;20.80;99.90
983;DHT22;480;48.124;11.578;2023-08-17T02:51:42;21.00;99.90
983;DHT22;480;48.124;11.578;2023-08-17T02:54:09;21.00;99.90
983;DHT22;480;48.124;11.578;2023-08-17T02:56:36;21.10;99.90
983;DHT22;480;48.124;11.578;2023-08-17T02:59:03;20.90;99.90
983;DHT22;480;48.124;11.578;2023-08-17T03:01:30;20.70;99.90
983;DHT22;480;48.124;11.578;2023-08-17T03:03:57;20.80;99.90
983;DHT22;480;48.124;11.578;2023-08-17T03:06:26;20.70;99.90
983;DHT22;480;48.124;11.578;2023-08-17T03:08:53;20.80;99.90
983;DHT22;480;48.124;11.578;2023-08-17T03:11:20;20.90;99.90
983;DHT22;480;48.124;11.578;2023-08-17T03:13:47;21.00;99.90
983;DHT22;480;48.124;11.578;2023-08-17T03:16:14;20.90;99.90
983;DHT22;480;48.124;11.578;2023-08-17T03:18:42;20.90;99.90
983;DHT22;480;48.124;11.578;2023-08-17T03:21:09;20.90;99.90
983;DHT22;480;48.124;11.578;2023-08-17T03:23:37;20.70;99.90
983;DHT22;480;48.124;11.578;2023-08-17T03:26:04;20.60;99.90
983;DHT22;480;48.124;11.578;2023-08-17T03:28:31;20.50;99.90
983;DHT22;480;48.124;11.578;2023-08-17T03:30:58;20.50;99.90
983;DHT22;480;48.124;11.578;2023-08-17T03:33:25;20.60;99.90
983;DHT22;480;48.124;11.578;2023-08-17T03:35:53;20.60;99.90
983;DHT22;480;48.124;11.578;2023-08-17T03:38:20;20.60;99.90
983;DHT22;480;48.124;11.578;2023-08-17T03:40:49;20.60;99.90
983;DHT22;480;48.124;11.578;2023-08-17T03:43:16;20.60;99.90
983;DHT22;480;48.124;11.578;2023-08-17T03:45:43;20.60;99.90
983;DHT22;480;48.124;11.578;2023-08-17T03:48:10;20.60;99.90
983;DHT22;480;48.124;11.578;2023-08-17T03:50:38;20.70;99.90
983;DHT22;480;48.124;11.578;2023-08-17T03:53:05;20.50;99.90
983;DHT22;480;48.124;11.578;2023-08-17T03:55:32;20.30;99.90
983;DHT22;480;48.124;11.578;2023-08-17T03:58:00;20.30;99.90
983;DHT22;480;48.124;11.578;2023-08-17T04:00:27;20.40;99.90
983;DHT22;480;48.124;11.578;2023-08-17T04:02:54;20.40;99.90
983;DHT22;480;48.124;11.578;2023-08-17T04:05:21;20.50;99.90
983;DHT22;480;48.124;11.578;2023-08-17T04:07:48;20.60;99.90
983;DHT22;480;48.124;11.578;2023-08-17T04:10:15;20.40;99.90
983;DHT22;480;48.124;11.578;2023-08-17T04:12:42;20.40;99.90
983;DHT22;480;48.124;11.578;2023-08-17T04:15:11;20.60;99.90
983;DHT22;480;48.124;11.578;2023-08-17T04:17:38;20.20;99.90
983;DHT22;480;48.124;11.578;2023-08-17T04:20:05;20.10;99.90
983;DHT22;480;48.124;11.578;2023-08-17T04:22:33;19.70;99.90
983;DHT22;480;48.124;11.578;2023-08-17T04:24:59;19.60;99.90
983;DHT22;480;48.124;11.578;2023-08-17T04:27:26;19.50;99.90
983;DHT22;480;48.124;11.578;2023-08-17T04:29:53;19.60;99.90
983;DHT22;480;48.124;11.578;2023-08-17T04:32:22;19.80;99.90
983;DHT22;480;48.124;11.578;2023-08-17T04:34:49;19.80;99.90
983;DHT22;480;48.124;11.578;2023-08-17T04:37:16;19.90;99.90
983;DHT22;480;48.124;11.578;2023-08-17T04:39:43;20.10;99.90
983;DHT22;480;48.124;11.578;2023-08-17T04:42:10;20.30;99.90
983;DHT22;480;48.124;11.578;2023-08-17T04:44:37;20.40;99.90
983;DHT22;480;48.124;11.578;2023-08-17T04:47:04;20.50;99.90
983;DHT22;480;48.124;11.578;2023-08-17T04:49:32;20.60;99.90
983;DHT22;480;48.124;11.578;2023-08-17T04:51:59;20.70;99.90
983;DHT22;480;48.124;11.578;2023-08-17T04:54:26;20.70;99.90
983;DHT22;480;48.124;11.578;2023-08-17T04:56:53;20.80;99.90
983;DHT22;480;48.124;11.578;2023-08-17T04:59:21;20.90;99.90
983;DHT22;480;48.124;11.578;2023-08-17T05:01:48;20.90;99.90
983;DHT22;480;48.124;11.578;2023-08-17T05:04:15;21.00;99.90
983;DHT22;480;48.124;11.578;2023-08-17T05:06:43;21.10;99.90
983;DHT22;480;48.124;11.578;2023-08-17T05:09:10;21.10;99.90
983;DHT22;480;48.124;11.578;2023-08-17T05:11:37;21.20;99.90
983;DHT22;480;48.124;11.578;2023-08-17T05:14:04;21.20;99.90
983;DHT22;480;48.124;11.578;2023-08-17T05:16:31;21.30;99.90
983;DHT22;480;48.124;11.578;2023-08-17T05:18:58;21.40;99.90
983;DHT22;480;48.124;11.578;2023-08-17T05:21:25;21.30;99.90
983;DHT22;480;48.124;11.578;2023-08-17T05:23:54;21.40;99.90
983;DHT22;480;48.124;11.578;2023-08-17T05:26:21;21.40;99.90
983;DHT22;480;48.124;11.578;2023-08-17T05:28:48;21.20;99.90
983;DHT22;480;48.124;11.578;2023-08-17T05:31:15;21.10;99.90
983;DHT22;480;48.124;11.578;2023-08-17T05:33:42;21.10;99.90
983;DHT22;480;48.124;11.578;2023-08-17T05:36:09;21.20;99.90
983;DHT22;480;48.124;11.578;2023-08-17T05:38:36;21.30;99.90
983;DHT22;480;48.124;11.578;2023-08-17T05:41:05;21.40;99.90
983;DHT22;480;48.124;11.578;2023-08-17T05:43:32;21.50;99.90
983;DHT22;480;48.124;11.578;2023-08-17T05:45:59;21.50;99.90
983;DHT22;480;48.124;11.578;2023-08-17T05:48:26;21.50;99.90
983;DHT22;480;48.124;11.578;2023-08-17T05:50:53;21.40;99.90
983;DHT22;480;48.124;11.578;2023-08-17T05:53:21;21.30;99.90
983;DHT22;480;48.124;11.578;2023-08-17T05:55:48;21.50;99.90
983;DHT22;480;48.124;11.578;2023-08-17T05:58:17;21.70;99.90
983;DHT22;480;48.124;11.578;2023-08-17T06:00:44;21.90;99.90
983;DHT22;480;48.124;11.578;2023-08-17T06:03:11;21.90;99.90
983;DHT22;480;48.124;11.578;2023-08-17T06:05:39;22.10;99.90
983;DHT22;480;48.124;11.578;2023-08-17T06:08:06;22.10;99.90
983;DHT22;480;48.124;11.578;2023-08-17T06:10:33;22.10;99.90
983;DHT22;480;48.124;11.578;2023-08-17T06:13:00;22.10;99.90
983;DHT22;480;48.124;11.578;2023-08-17T06:15:28;22.00;99.90
983;DHT22;480;48.124;11.578;2023-08-17T06:17:55;21.90;99.90
983;DHT22;480;48.124;11.578;2023-08-17T06:20:22;21.90;99.90
983;DHT22;480;48.124;11.578;2023-08-17T06:22:49;21.80;99.90
983;DHT22;480;48.124;11.578;2023-08-17T06:25:16;21.90;99.90
983;DHT22;480;48.124;11.578;2023-08-17T06:27:43;22.10;99.90
983;DHT22;480;48.124;11.578;2023-08-17T06:30:11;22.10;99.90
983;DHT22;480;48.124;11.578;2023-08-17T06:32:40;22.10;99.90
983;DHT22;480;48.124;11.578;2023-08-17T06:35:07;22.20;99.90
983;DHT22;480;48.124;11.578;2023-08-17T06:37:34;22.40;99.90
983;DHT22;480;48.124;11.578;2023-08-17T06:40:01;22.50;99.90
983;DHT22;480;48.124;11.578;2023-08-17T06:42:29;22.50;99.90
983;DHT22;480;48.124;11.578;2023-08-17T06:44:56;22.50;99.90
983;DHT22;480;48.124;11.578;2023-08-17T06:47:23;22.60;99.90
983;DHT22;480;48.124;11.578;2023-08-17T06:49:51;22.70;99.90
983;DHT22;480;48.124;11.578;2023-08-17T06:52:18;22.70;99.90
983;DHT22;480;48.124;11.578;2023-08-17T06:54:45;22.80;99.90
983;DHT22;480;48.124;11.578;2023-08-17T06:57:12;22.90;99.90
983;DHT22;480;48.124;11.578;2023-08-17T06:59:39;23.00;99.90
983;DHT22;480;48.124;11.578;2023-08-17T07:02:06;23.00;99.90
983;DHT22;480;48.124;11.578;2023-08-17T07:04:33;23.10;99.90
983;DHT22;480;48.124;11.578;2023-08-17T07:07:01;23.10;99.90
983;DHT22;480;48.124;11.578;2023-08-17T07:09:28;23.10;99.90
983;DHT22;480;48.124;11.578;2023-08-17T07:11:55;23.20;99.90
983;DHT22;480;48.124;11.578;2023-08-17T07:14:22;23.20;99.90
983;DHT22;480;48.124;11.578;2023-08-17T07:16:50;23.20;99.90
983;DHT22;480;48.124;11.578;2023-08-17T07:19:18;23.30;99.90
983;DHT22;480;48.124;11.578;2023-08-17T07:21:44;23.20;99.90
983;DHT22;480;48.124;11.578;2023-08-17T07:24:16;23.20;99.90
983;DHT22;480;48.124;11.578;2023-08-17T07:26:43;23.40;99.90
983;DHT22;480;48.124;11.578;2023-08-17T07:29:10;23.60;99.90
983;DHT22;480;48.124;11.578;2023-08-17T07:31:38;23.70;99.90
983;DHT22;480;48.124;11.578;2023-08-17T07:34:05;23.80;99.90
983;DHT22;480;48.124;11.578;2023-08-17T07:36:39;23.80;99.90
983;DHT22;480;48.124;11.578;2023-08-17T07:39:18;23.80;99.90
983;DHT22;480;48.124;11.578;2023-08-17T07:41:51;24.00;99.90
983;DHT22;480;48.124;11.578;2023-08-17T07:44:19;24.30;99.90
983;DHT22;480;48.124;11.578;2023-08-17T07:46:46;24.30;99.90
983;DHT22;480;48.124;11.578;2023-08-17T07:49:13;24.40;99.90
983;DHT22;480;48.124;11.578;2023-08-17T07:51:40;24.70;99.90
983;DHT22;480;48.124;11.578;2023-08-17T07:54:07;24.80;99.90
983;DHT22;480;48.124;11.578;2023-08-17T07:56:35;24.80;99.90
983;DHT22;480;48.124;11.578;2023-08-17T07:59:03;24.90;99.90
983;DHT22;480;48.124;11.578;2023-08-17T08:01:30;25.00;99.90
983;DHT22;480;48.124;11.578;2023-08-17T08:03:57;25.10;99.90
983;DHT22;480;48.124;11.578;2023-08-17T08:06:24;25.10;99.90
983;DHT22;480;48.124;11.578;2023-08-17T08:08:52;25.10;99.90
983;DHT22;480;48.124;11.578;2023-08-17T08:11:21;25.30;99.90
983;DHT22;480;48.124;11.578;2023-08-17T08:13:49;25.40;99.90
983;DHT22;480;48.124;11.578;2023-08-17T08:16:16;25.50;99.90
983;DHT22;480;48.124;11.578;2023-08-17T08:18:43;25.80;99.90
983;DHT22;480;48.124;11.578;2023-08-17T08:21:10;25.80;99.90
983;DHT22;480;48.124;11.578;2023-08-17T08:23:37;25.70;99.90
983;DHT22;480;48.124;11.578;2023-08-17T08:26:04;25.70;99.90
983;DHT22;480;48.124;11.578;2023-08-17T08:28:31;25.60;99.90
983;DHT22;480;48.124;11.578;2023-08-17T08:31:03;25.70;99.90
983;DHT22;480;48.124;11.578;2023-08-17T08:33:30;25.90;99.90
983;DHT22;480;48.124;11.578;2023-08-17T08:35:57;25.90;99.90
983;DHT22;480;48.124;11.578;2023-08-17T08:38:24;26.00;99.90
983;DHT22;480;48.124;11.578;2023-08-17T08:40:51;26.20;99.90
983;DHT22;480;48.124;11.578;2023-08-17T08:43:19;26.20;99.90
983;DHT22;480;48.124;11.578;2023-08-17T08:45:46;26.10;99.90
983;DHT22;480;48.124;11.578;2023-08-17T08:48:18;26.10;99.90
983;DHT22;480;48.124;11.578;2023-08-17T08:50:46;26.10;99.90
983;DHT22;480;48.124;11.578;2023-08-17T08:53:15;26.10;99.90
983;DHT22;480;48.124;11.578;2023-08-17T08:55:48;26.10;99.90
983;DHT22;480;48.124;11.578;2023-08-17T08:58:16;26.20;99.90
983;DHT22;480;48.124;11.578;2023-08-17T09:00:46;26.40;99.90
983;DHT22;480;48.124;11.578;2023-08-17T09:03:16;26.60;99.90
983;DHT22;480;48.124;11.578;2023-08-17T09:05:47;26.60;99.90
983;DHT22;480;48.124;11.578;2023-08-17T09:08:18;26.60;99.90
983;DHT22;480;48.124;11.578;2023-08-17T09:10:45;26.50;99.90
983;DHT22;480;48.124;11.578;2023-08-17T09:13:13;26.50;99.90
983;DHT22;480;48.124;11.578;2023-08-17T09:15:40;26.60;99.90
983;DHT22;480;48.124;11.578;2023-08-17T09:18:07;26.80;99.90
983;DHT22;480;48.124;11.578;2023-08-17T09:20:37;26.90;99.90
983;DHT22;480;48.124;11.578;2023-08-17T09:23:09;27.20;99.90
983;DHT22;480;48.124;11.578;2023-08-17T09:25:38;27.30;99.90
983;DHT22;480;48.124;11.578;2023-08-17T09:28:09;27.40;99.90
983;DHT22;480;48.124;11.578;2023-08-17T09:30:52;27.40;99.90
983;DHT22;480;48.124;11.578;2023-08-17T09:33:19;27.30;99.90
983;DHT22;480;48.124;11.578;2023-08-17T09:35:49;27.40;99.90
983;DHT22;480;48.124;11.578;2023-08-17T09:38:16;27.70;99.90
983;DHT22;480;48.124;11.578;2023-08-17T09:40:43;27.80;99.90
983;DHT22;480;48.124;11.578;2023-08-17T09:43:10;27.80;99.90
983;DHT22;480;48.124;11.578;2023-08-17T09:45:38;27.80;99.90
983;DHT22;480;48.124;11.578;2023-08-17T09:48:06;28.10;99.90
983;DHT22;480;48.124;11.578;2023-08-17T09:50:34;28.00;99.90
983;DHT22;480;48.124;11.578;2023-08-17T09:53:04;28.00;99.90
983;DHT22;480;48.124;11.578;2023-08-17T09:55:31;28.20;99.90
983;DHT22;480;48.124;11.578;2023-08-17T09:57:59;28.20;99.90
983;DHT22;480;48.124;11.578;2023-08-17T10:00:27;28.30;99.90
983;DHT22;480;48.124;11.578;2023-08-17T10:02:58;28.30;99.90
983;DHT22;480;48.124;11.578;2023-08-17T10:05:32;28.40;99.90
983;DHT22;480;48.124;11.578;2023-08-17T10:08:04;28.30;99.90
983;DHT22;480;48.124;11.578;2023-08-17T10:10:35;28.20;99.90
983;DHT22;480;48.124;11.578;2023-08-17T10:13:09;28.40;99.90
983;DHT22;480;48.124;11.578;2023-08-17T10:15:41;28.30;99.90
983;DHT22;480;48.124;11.578;2023-08-17T10:18:17;28.60;99.90
983;DHT22;480;48.124;11.578;2023-08-17T10:20:53;28.80;99.90
983;DHT22;480;48.124;11.578;2023-08-17T10:23:27;29.00;99.90
983;DHT22;480;48.124;11.578;2023-08-17T10:25:54;28.70;99.90
983;DHT22;480;48.124;11.578;2023-08-17T10:28:22;28.70;99.90
983;DHT22;480;48.124;11.578;2023-08-17T10:30:51;28.90;99.90
983;DHT22;480;48.124;11.578;2023-08-17T10:33:18;29.20;99.90
983;DHT22;480;48.124;11.578;2023-08-17T10:35:46;29.30;99.90
983;DHT22;480;48.124;11.578;2023-08-17T10:38:15;29.30;99.90
983;DHT22;480;48.124;11.578;2023-08-17T10:40:45;29.20;99.90
983;DHT22;480;48.124;11.578;2023-08-17T10:43:33;29.10;99.90
983;DHT22;480;48.124;11.578;2023-08-17T10:46:14;29.10;99.90
983;DHT22;480;48.124;11.578;2023-08-17T10:48:44;29.30;99.90
983;DHT22;480;48.124;11.578;2023-08-17T10:51:11;29.60;99.90
983;DHT22;480;48.124;11.578;2023-08-17T10:53:40;29.70;99.90
983;DHT22;480;48.124;11.578;2023-08-17T10:56:13;29.70;99.90
983;DHT22;480;48.124;11.578;2023-08-17T10:58:42;29.60;99.90
983;DHT22;480;48.124;11.578;2023-08-17T11:01:10;29.30;99.90
983;DHT22;480;48.124;11.578;2023-08-17T11:03:37;29.10;99.90
983;DHT22;480;48.124;11.578;2023-08-17T11:06:15;29.20;99.90
983;DHT22;480;48.124;11.578;2023-08-17T11:08:54;29.30;99.90
983;DHT22;480;48.124;11.578;2023-08-17T11:11:24;29.30;99.90
983;DHT22;480;48.124;11.578;2023-08-17T11:13:52;29.40;99.90
983;DHT22;480;48.124;11.578;2023-08-17T11:16:19;29.20;99.90
983;DHT22;480;48.124;11.578;2023-08-17T11:18:47;29.30;99.90
983;DHT22;480;48.124;11.578;2023-08-17T11:21:15;29.40;99.90
983;DHT22;480;48.124;11.578;2023-08-17T11:23:45;29.50;99.90
983;DHT22;480;48.124;11.578;2023-08-17T11:26:15;29.50;99.90
983;DHT22;480;48.124;11.578;2023-08-17T11:28:44;29.50;99.90
983;DHT22;480;48.124;11.578;2023-08-17T11:31:12;29.60;99.90
983;DHT22;480;48.124;11.578;2023-08-17T11:33:41;29.50;99.90
983;DHT22;480;48.124;11.578;2023-08-17T11:36:09;29.60;99.90
983;DHT22;480;48.124;11.578;2023-08-17T11:38:38;29.90;99.90
983;DHT22;480;48.124;11.578;2023-08-17T11:41:06;30.30;99.90
983;DHT22;480;48.124;11.578;2023-08-17T11:43:33;30.70;99.90
983;DHT22;480;48.124;11.578;2023-08-17T11:46:07;30.80;99.90
983;DHT22;480;48.124;11.578;2023-08-17T11:48:34;30.70;99.90
983;DHT22;480;48.124;11.578;2023-08-17T11:51:01;30.70;99.90
983;DHT22;480;48.124;11.578;2023-08-17T11:53:33;30.70;99.90
983;DHT22;480;48.124;11.578;2023-08-17T11:56:01;30.90;99.90
983;DHT22;480;48.124;11.578;2023-08-17T11:58:40;31.00;99.90
983;DHT22;480;48.124;11.578;2023-08-17T12:01:10;31.20;99.90
983;DHT22;480;48.124;11.578;2023-08-17T12:03:38;31.20;99.90
983;DHT22;480;48.124;11.578;2023-08-17T12:06:06;31.40;99.90
983;DHT22;480;48.124;11.578;2023-08-17T12:08:33;31.40;99.90
983;DHT22;480;48.124;11.578;2023-08-17T12:11:02;31.80;99.90
983;DHT22;480;48.124;11.578;2023-08-17T12:13:38;31.70;99.90
983;DHT22;480;48.124;11.578;2023-08-17T12:16:05;32.10;99.90
983;DHT22;480;48.124;11.578;2023-08-17T12:18:36;32.00;99.90
983;DHT22;480;48.124;11.578;2023-08-17T12:21:03;31.70;99.90
983;DHT22;480;48.124;11.578;2023-08-17T12:23:32;32.10;99.90
983;DHT22;480;48.124;11.578;2023-08-17T12:25:59;31.70;99.90
983;DHT22;480;48.124;11.578;2023-08-17T12:28:26;31.70;99.90
983;DHT22;480;48.124;11.578;2023-08-17T12:31:00;31.20;99.90
983;DHT22;480;48.124;11.578;2023-08-17T12:33:27;31.40;99.90
983;DHT22;480;48.124;11.578;2023-08-17T12:35:56;31.80;99.90
983;DHT22;480;48.124;11.578;2023-08-17T12:38:24;31.70;99.90
983;DHT22;480;48.124;11.578;2023-08-17T12:40:51;31.40;99.90
983;DHT22;480;48.124;11.578;2023-08-17T12:43:18;31.40;99.90
983;DHT22;480;48.124;11.578;2023-08-17T12:45:45;31.30;99.90
983;DHT22;480;48.124;11.578;2023-08-17T12:48:12;31.80;99.90
983;DHT22;480;48.124;11.578;2023-08-17T12:50:39;31.80;99.90
983;DHT22;480;48.124;11.578;2023-08-17T12:53:07;31.80;99.90
983;DHT22;480;48.124;11.578;2023-08-17T12:55:34;32.00;99.90
983;DHT22;480;48.124;11.578;2023-08-17T12:58:02;32.30;99.90
983;DHT22;480;48.124;11.578;2023-08-17T13:00:30;32.10;99.90
983;DHT22;480;48.124;11.578;2023-08-17T13:02:57;31.20;99.90
983;DHT22;480;48.124;11.578;2023-08-17T13:05:24;31.40;99.90
983;DHT22;480;48.124;11.578;2023-08-17T13:07:51;31.80;99.90
983;DHT22;480;48.124;11.578;2023-08-17T13:10:19;32.00;99.90
983;DHT22;480;48.124;11.578;2023-08-17T13:12:46;31.90;99.90
983;DHT22;480;48.124;11.578;2023-08-17T13:15:13;32.30;99.90
983;DHT22;480;48.124;11.578;2023-08-17T13:17:40;31.90;99.90
983;DHT22;480;48.124;11.578;2023-08-17T13:20:08;31.80;99.90
983;DHT22;480;48.124;11.578;2023-08-17T13:22:36;32.30;99.90
983;DHT22;480;48.124;11.578;2023-08-17T13:25:03;32.60;99.90
983;DHT22;480;48.124;11.578;2023-08-17T13:27:32;32.70;99.90
983;DHT22;480;48.124;11.578;2023-08-17T13:29:59;32.70;99.90
983;DHT22;480;48.124;11.578;2023-08-17T13:32:27;32.40;99.90
983;DHT22;480;48.124;11.578;2023-08-17T13:34:54;32.70;99.90
983;DHT22;480;48.124;11.578;2023-08-17T13:37:21;32.00;99.90
983;DHT22;480;48.124;11.578;2023-08-17T13:39:48;32.10;99.90
983;DHT22;480;48.124;11.578;2023-08-17T13:42:15;32.30;99.90
983;DHT22;480;48.124;11.578;2023-08-17T13:44:44;32.30;99.90
983;DHT22;480;48.124;11.578;2023-08-17T13:47:11;31.10;99.90
983;DHT22;480;48.124;11.578;2023-08-17T13:49:38;30.90;99.90
983;DHT22;480;48.124;11.578;2023-08-17T13:52:05;30.90;99.90
983;DHT22;480;48.124;11.578;2023-08-17T13:54:32;30.80;99.90
983;DHT22;480;48.124;11.578;2023-08-17T13:56:59;30.60;99.90
983;DHT22;480;48.124;11.578;2023-08-17T13:59:26;30.50;99.90
983;DHT22;480;48.124;11.578;2023-08-17T14:01:56;30.40;99.90
983;DHT22;480;48.124;11.578;2023-08-17T14:04:23;30.00;99.90
983;DHT22;480;48.124;11.578;2023-08-17T14:06:50;29.80;99.90
983;DHT22;480;48.124;11.578;2023-08-17T14:09:17;29.70;99.90
983;DHT22;480;48.124;11.578;2023-08-17T14:11:44;29.60;99.90
983;DHT22;480;48.124;11.578;2023-08-17T14:14:11;29.60;99.90
983;DHT22;480;48.124;11.578;2023-08-17T14:16:38;29.60;99.90
983;DHT22;480;48.124;11.578;2023-08-17T14:19:07;29.30;99.90
983;DHT22;480;48.124;11.578;2023-08-17T14:21:34;29.40;99.90
983;DHT22;480;48.124;11.578;2023-08-17T14:24:01;29.20;99.90
983;DHT22;480;48.124;11.578;2023-08-17T14:26:28;29.20;99.90
983;DHT22;480;48.124;11.578;2023-08-17T14:28:55;29.30;99.90
983;DHT22;480;48.124;11.578;2023-08-17T14:31:22;29.30;99.90
983;DHT22;480;48.124;11.578;2023-08-17T14:33:49;29.40;99.90
983;DHT22;480;48.124;11.578;2023-08-17T14:36:17;29.60;99.90
983;DHT22;480;48.124;11.578;2023-08-17T14:38:44;29.70;99.90
983;DHT22;480;48.124;11.578;2023-08-17T14:41:11;29.80;99.90
983;DHT22;480;48.124;11.578;2023-08-17T14:43:38;30.20;99.90
983;DHT22;480;48.124;11.578;2023-08-17T14:46:05;30.40;99.90
983;DHT22;480;48.124;11.578;2023-08-17T14:48:32;30.60;99.90
983;DHT22;480;48.124;11.578;2023-08-17T14:50:59;30.80;99.90
983;DHT22;480;48.124;11.578;2023-08-17T14:53:28;30.90;99.90
983;DHT22;480;48.124;11.578;2023-08-17T14:55:55;31.00;99.90
983;DHT22;480;48.124;11.578;2023-08-17T14:58:22;31.00;99.90
983;DHT22;480;48.124;11.578;2023-08-17T15:00:49;30.90;99.90
983;DHT22;480;48.124;11.578;2023-08-17T15:03:16;31.10;99.90
983;DHT22;480;48.124;11.578;2023-08-17T15:05:43;31.10;99.90
983;DHT22;480;48.124;11.578;2023-08-17T15:08:10;31.40;99.90
983;DHT22;480;48.124;11.578;2023-08-17T15:10:38;31.80;99.90
983;DHT22;480;48.124;11.578;2023-08-17T15:13:05;31.90;99.90
983;DHT22;480;48.124;11.578;2023-08-17T15:15:32;32.00;99.90
983;DHT22;480;48.124;11.578;2023-08-17T15:17:58;31.40;99.90
983;DHT22;480;48.124;11.578;2023-08-17T15:20:25;31.00;99.90
983;DHT22;480;48.124;11.578;2023-08-17T15:22:55;30.80;99.90
983;DHT22;480;48.124;11.578;2023-08-17T15:25:22;30.60;99.90
983;DHT22;480;48.124;11.578;2023-08-17T15:27:50;30.40;99.90
983;DHT22;480;48.124;11.578;2023-08-17T15:30:17;30.30;99.90
983;DHT22;480;48.124;11.578;2023-08-17T15:32:44;30.20;99.90
983;DHT22;480;48.124;11.578;2023-08-17T15:35:11;29.90;99.90
983;DHT22;480;48.124;11.578;2023-08-17T15:37:39;29.90;99.90
983;DHT22;480;48.124;11.578;2023-08-17T15:40:07;29.90;99.90
983;DHT22;480;48.124;11.578;2023-08-17T15:42:34;29.90;99.90
983;DHT22;480;48.124;11.578;2023-08-17T15:45:03;29.70;99.90
983;DHT22;480;48.124;11.578;2023-08-17T15:47:30;29.60;99.90
983;DHT22;480;48.124;11.578;2023-08-17T15:49:57;29.50;99.90
983;DHT22;480;48.124;11.578;2023-08-17T15:52:24;29.60;99.90
983;DHT22;480;48.124;11.578;2023-08-17T15:54:51;29.70;99.90
983;DHT22;480;48.124;11.578;2023-08-17T15:57:17;29.70;99.90
983;DHT22;480;48.124;11.578;2023-08-17T15:59:44;29.60;99.90
983;DHT22;480;48.124;11.578;2023-08-17T16:02:16;29.60;99.90
983;DHT22;480;48.124;11.578;2023-08-17T16:04:43;29.30;99.90
983;DHT22;480;48.124;11.578;2023-08-17T16:07:12;29.00;99.90
983;DHT22;480;48.124;11.578;2023-08-17T16:09:39;29.00;99.90
983;DHT22;480;48.124;11.578;2023-08-17T16:12:08;29.00;99.90
983;DHT22;480;48.124;11.578;2023-08-17T16:14:35;29.00;99.90
983;DHT22;480;48.124;11.578;2023-08-17T16:17:02;29.00;99.90
983;DHT22;480;48.124;11.578;2023-08-17T16:19:30;28.90;99.90
983;DHT22;480;48.124;11.578;2023-08-17T16:21:57;28.80;99.90